sensor_id;sensor_type;location;lat;lon;timestamp;P1;durP1;ratioP1;P2;durP2;ratioP2
21517;SDS011;61765;45.794;24.150;2022-08-21T00:00:46;16.00;;;8.13;;
21517;SDS011;61765;45.794;24.150;2022-08-21T00:04:55;14.27;;;8.35;;
21517;SDS011;61765;45.794;24.150;2022-08-21T00:09:01;16.90;;;9.45;;
21517;SDS011;61765;45.794;24.150;2022-08-21T00:13:08;23.20;;;8.93;;
21517;SDS011;61765;45.794;24.150;2022-08-21T00:17:19;17.85;;;8.15;;
21517;SDS011;61765;45.794;24.150;2022-08-21T00:21:27;13.65;;;7.43;;
21517;SDS011;61765;45.794;24.150;2022-08-21T00:25:33;14.20;;;7.63;;
21517;SDS011;61765;45.794;24.150;2022-08-21T00:29:38;14.00;;;7.60;;
21517;SDS011;61765;45.794;24.150;2022-08-21T00:33:45;13.00;;;7.93;;
21517;SDS011;61765;45.794;24.150;2022-08-21T00:37:53;16.38;;;8.52;;
21517;SDS011;61765;45.794;24.150;2022-08-21T00:41:59;14.38;;;7.53;;
21517;SDS011;61765;45.794;24.150;2022-08-21T00:46:05;14.70;;;8.00;;
21517;SDS011;61765;45.794;24.150;2022-08-21T00:50:11;17.20;;;7.57;;
21517;SDS011;61765;45.794;24.150;2022-08-21T00:54:25;13.27;;;7.15;;
21517;SDS011;61765;45.794;24.150;2022-08-21T01:02:41;12.82;;;7.22;;
21517;SDS011;61765;45.794;24.150;2022-08-21T01:06:48;12.40;;;7.47;;
21517;SDS011;61765;45.794;24.150;2022-08-21T01:10:56;14.70;;;7.68;;
21517;SDS011;61765;45.794;24.150;2022-08-21T01:15:04;16.50;;;7.95;;
21517;SDS011;61765;45.794;24.150;2022-08-21T01:19:10;9.80;;;6.93;;
21517;SDS011;61765;45.794;24.150;2022-08-21T01:23:19;12.55;;;7.30;;
21517;SDS011;61765;45.794;24.150;2022-08-21T01:27:27;13.35;;;7.18;;
21517;SDS011;61765;45.794;24.150;2022-08-21T01:31:32;13.20;;;6.78;;
21517;SDS011;61765;45.794;24.150;2022-08-21T01:35:38;14.35;;;7.68;;
21517;SDS011;61765;45.794;24.150;2022-08-21T01:39:47;14.75;;;7.68;;
21517;SDS011;61765;45.794;24.150;2022-08-21T01:43:52;10.93;;;7.10;;
21517;SDS011;61765;45.794;24.150;2022-08-21T01:47:58;14.75;;;6.78;;
21517;SDS011;61765;45.794;24.150;2022-08-21T01:52:04;15.07;;;7.93;;
21517;SDS011;61765;45.794;24.150;2022-08-21T01:56:13;13.80;;;7.22;;
21517;SDS011;61765;45.794;24.150;2022-08-21T02:00:20;15.45;;;7.35;;
21517;SDS011;61765;45.794;24.150;2022-08-21T02:04:27;11.98;;;6.82;;
21517;SDS011;61765;45.794;24.150;2022-08-21T02:08:32;12.48;;;6.95;;
21517;SDS011;61765;45.794;24.150;2022-08-21T02:12:40;15.98;;;8.20;;
21517;SDS011;61765;45.794;24.150;2022-08-21T02:16:46;16.95;;;7.55;;
21517;SDS011;61765;45.794;24.150;2022-08-21T02:21:06;11.13;;;7.10;;
21517;SDS011;61765;45.794;24.150;2022-08-21T02:25:12;10.48;;;6.90;;
21517;SDS011;61765;45.794;24.150;2022-08-21T02:29:20;11.95;;;7.53;;
21517;SDS011;61765;45.794;24.150;2022-08-21T02:33:26;11.30;;;7.43;;
21517;SDS011;61765;45.794;24.150;2022-08-21T02:37:31;13.43;;;6.95;;
21517;SDS011;61765;45.794;24.150;2022-08-21T02:41:37;15.52;;;8.38;;
21517;SDS011;61765;45.794;24.150;2022-08-21T02:45:45;15.23;;;7.60;;
21517;SDS011;61765;45.794;24.150;2022-08-21T02:49:51;16.52;;;8.57;;
21517;SDS011;61765;45.794;24.150;2022-08-21T02:53:57;17.48;;;8.07;;
21517;SDS011;61765;45.794;24.150;2022-08-21T02:58:03;15.43;;;8.80;;
21517;SDS011;61765;45.794;24.150;2022-08-21T03:02:12;16.08;;;8.27;;
21517;SDS011;61765;45.794;24.150;2022-08-21T03:06:19;13.02;;;8.18;;
21517;SDS011;61765;45.794;24.150;2022-08-21T03:10:28;13.77;;;8.13;;
21517;SDS011;61765;45.794;24.150;2022-08-21T03:14:35;17.70;;;9.38;;
21517;SDS011;61765;45.794;24.150;2022-08-21T03:18:43;15.10;;;8.25;;
21517;SDS011;61765;45.794;24.150;2022-08-21T03:22:48;14.77;;;9.43;;
21517;SDS011;61765;45.794;24.150;2022-08-21T03:26:54;15.75;;;8.63;;
21517;SDS011;61765;45.794;24.150;2022-08-21T03:31:00;15.57;;;9.15;;
21517;SDS011;61765;45.794;24.150;2022-08-21T03:35:09;16.63;;;9.70;;
21517;SDS011;61765;45.794;24.150;2022-08-21T03:39:15;12.50;;;8.95;;
21517;SDS011;61765;45.794;24.150;2022-08-21T03:43:21;19.17;;;9.85;;
21517;SDS011;61765;45.794;24.150;2022-08-21T03:47:26;18.52;;;9.32;;
21517;SDS011;61765;45.794;24.150;2022-08-21T03:51:34;16.67;;;10.02;;
21517;SDS011;61765;45.794;24.150;2022-08-21T03:55:40;14.55;;;9.18;;
21517;SDS011;61765;45.794;24.150;2022-08-21T03:59:45;15.10;;;8.90;;
21517;SDS011;61765;45.794;24.150;2022-08-21T04:03:51;17.40;;;9.13;;
21517;SDS011;61765;45.794;24.150;2022-08-21T04:07:59;17.42;;;9.85;;
21517;SDS011;61765;45.794;24.150;2022-08-21T04:12:07;14.65;;;10.10;;
21517;SDS011;61765;45.794;24.150;2022-08-21T04:16:13;14.93;;;9.68;;
21517;SDS011;61765;45.794;24.150;2022-08-21T04:20:20;18.30;;;11.43;;
21517;SDS011;61765;45.794;24.150;2022-08-21T04:24:29;17.00;;;10.30;;
21517;SDS011;61765;45.794;24.150;2022-08-21T04:28:34;21.52;;;10.98;;
21517;SDS011;61765;45.794;24.150;2022-08-21T04:32:41;23.67;;;11.75;;
21517;SDS011;61765;45.794;24.150;2022-08-21T04:36:47;24.08;;;11.10;;
21517;SDS011;61765;45.794;24.150;2022-08-21T04:40:57;17.42;;;10.23;;
21517;SDS011;61765;45.794;24.150;2022-08-21T04:45:03;13.73;;;8.43;;
21517;SDS011;61765;45.794;24.150;2022-08-21T04:49:09;9.95;;;6.47;;
21517;SDS011;61765;45.794;24.150;2022-08-21T04:53:16;9.48;;;6.22;;
21517;SDS011;61765;45.794;24.150;2022-08-21T04:57:27;9.18;;;6.88;;
21517;SDS011;61765;45.794;24.150;2022-08-21T05:01:49;10.20;;;6.50;;
21517;SDS011;61765;45.794;24.150;2022-08-21T05:05:56;9.40;;;6.75;;
21517;SDS011;61765;45.794;24.150;2022-08-21T05:10:02;14.38;;;7.03;;
21517;SDS011;61765;45.794;24.150;2022-08-21T05:14:12;10.90;;;6.65;;
21517;SDS011;61765;45.794;24.150;2022-08-21T05:18:17;9.32;;;6.00;;
21517;SDS011;61765;45.794;24.150;2022-08-21T05:22:23;7.18;;;4.30;;
21517;SDS011;61765;45.794;24.150;2022-08-21T05:26:28;6.13;;;3.80;;
21517;SDS011;61765;45.794;24.150;2022-08-21T05:30:48;6.22;;;3.83;;
21517;SDS011;61765;45.794;24.150;2022-08-21T05:34:54;5.15;;;4.03;;
21517;SDS011;61765;45.794;24.150;2022-08-21T05:38:59;6.60;;;4.07;;
21517;SDS011;61765;45.794;24.150;2022-08-21T05:43:05;9.18;;;5.10;;
21517;SDS011;61765;45.794;24.150;2022-08-21T05:47:13;6.60;;;4.80;;
21517;SDS011;61765;45.794;24.150;2022-08-21T05:51:18;10.25;;;4.90;;
21517;SDS011;61765;45.794;24.150;2022-08-21T05:55:24;6.93;;;4.80;;
21517;SDS011;61765;45.794;24.150;2022-08-21T05:59:34;5.40;;;3.50;;
21517;SDS011;61765;45.794;24.150;2022-08-21T06:03:42;10.70;;;4.10;;
21517;SDS011;61765;45.794;24.150;2022-08-21T06:07:47;5.97;;;3.78;;
21517;SDS011;61765;45.794;24.150;2022-08-21T06:11:53;5.18;;;3.85;;
21517;SDS011;61765;45.794;24.150;2022-08-21T06:16:02;5.90;;;4.35;;
21517;SDS011;61765;45.794;24.150;2022-08-21T06:20:14;6.65;;;4.72;;
21517;SDS011;61765;45.794;24.150;2022-08-21T06:24:19;9.55;;;4.40;;
21517;SDS011;61765;45.794;24.150;2022-08-21T06:28:24;5.97;;;5.00;;
21517;SDS011;61765;45.794;24.150;2022-08-21T06:32:30;7.85;;;3.88;;
21517;SDS011;61765;45.794;24.150;2022-08-21T06:36:38;6.43;;;4.10;;
21517;SDS011;61765;45.794;24.150;2022-08-21T06:40:44;7.75;;;5.38;;
21517;SDS011;61765;45.794;24.150;2022-08-21T06:44:51;6.38;;;4.20;;
21517;SDS011;61765;45.794;24.150;2022-08-21T06:48:57;8.15;;;4.75;;
21517;SDS011;61765;45.794;24.150;2022-08-21T06:53:07;8.80;;;4.55;;
21517;SDS011;61765;45.794;24.150;2022-08-21T06:57:15;6.30;;;3.83;;
21517;SDS011;61765;45.794;24.150;2022-08-21T07:01:21;5.90;;;3.92;;
21517;SDS011;61765;45.794;24.150;2022-08-21T07:05:29;5.55;;;3.67;;
21517;SDS011;61765;45.794;24.150;2022-08-21T07:09:38;7.13;;;4.85;;
21517;SDS011;61765;45.794;24.150;2022-08-21T07:13:43;6.57;;;4.10;;
21517;SDS011;61765;45.794;24.150;2022-08-21T07:17:50;5.32;;;3.92;;
21517;SDS011;61765;45.794;24.150;2022-08-21T07:21:57;8.75;;;4.10;;
21517;SDS011;61765;45.794;24.150;2022-08-21T07:26:07;5.75;;;4.00;;
21517;SDS011;61765;45.794;24.150;2022-08-21T07:30:13;8.25;;;4.18;;
21517;SDS011;61765;45.794;24.150;2022-08-21T07:34:18;8.18;;;5.07;;
21517;SDS011;61765;45.794;24.150;2022-08-21T07:38:23;7.20;;;4.95;;
21517;SDS011;61765;45.794;24.150;2022-08-21T07:42:32;10.77;;;4.80;;
21517;SDS011;61765;45.794;24.150;2022-08-21T07:46:37;6.85;;;5.03;;
21517;SDS011;61765;45.794;24.150;2022-08-21T07:50:43;9.65;;;5.57;;
21517;SDS011;61765;45.794;24.150;2022-08-21T07:54:48;7.63;;;5.05;;
21517;SDS011;61765;45.794;24.150;2022-08-21T07:58:56;8.80;;;5.28;;
21517;SDS011;61765;45.794;24.150;2022-08-21T08:03:04;10.98;;;5.32;;
21517;SDS011;61765;45.794;24.150;2022-08-21T08:07:11;11.80;;;6.10;;
21517;SDS011;61765;45.794;24.150;2022-08-21T08:11:16;9.07;;;5.72;;
21517;SDS011;61765;45.794;24.150;2022-08-21T08:15:24;7.38;;;5.38;;
21517;SDS011;61765;45.794;24.150;2022-08-21T08:19:37;11.30;;;6.80;;
21517;SDS011;61765;45.794;24.150;2022-08-21T08:23:43;7.40;;;5.20;;
21517;SDS011;61765;45.794;24.150;2022-08-21T08:27:49;8.05;;;5.03;;
21517;SDS011;61765;45.794;24.150;2022-08-21T08:31:57;8.77;;;5.63;;
21517;SDS011;61765;45.794;24.150;2022-08-21T08:36:03;8.23;;;5.07;;
21517;SDS011;61765;45.794;24.150;2022-08-21T08:40:10;10.60;;;5.90;;
21517;SDS011;61765;45.794;24.150;2022-08-21T08:44:18;8.32;;;4.97;;
21517;SDS011;61765;45.794;24.150;2022-08-21T08:48:30;10.00;;;5.20;;
21517;SDS011;61765;45.794;24.150;2022-08-21T08:52:45;8.30;;;5.20;;
21517;SDS011;61765;45.794;24.150;2022-08-21T08:56:54;11.73;;;5.77;;
21517;SDS011;61765;45.794;24.150;2022-08-21T09:00:59;8.18;;;5.53;;
21517;SDS011;61765;45.794;24.150;2022-08-21T09:05:09;8.43;;;5.85;;
21517;SDS011;61765;45.794;24.150;2022-08-21T09:09:34;12.48;;;5.93;;
21517;SDS011;61765;45.794;24.150;2022-08-21T09:13:50;11.38;;;5.82;;
21517;SDS011;61765;45.794;24.150;2022-08-21T09:18:06;12.13;;;6.70;;
21517;SDS011;61765;45.794;24.150;2022-08-21T09:22:28;10.93;;;6.40;;
21517;SDS011;61765;45.794;24.150;2022-08-21T09:26:41;15.75;;;6.53;;
21517;SDS011;61765;45.794;24.150;2022-08-21T09:30:54;12.43;;;6.90;;
21517;SDS011;61765;45.794;24.150;2022-08-21T09:35:05;13.30;;;7.25;;
21517;SDS011;61765;45.794;24.150;2022-08-21T09:39:21;13.35;;;6.43;;
21517;SDS011;61765;45.794;24.150;2022-08-21T09:43:29;8.55;;;6.20;;
21517;SDS011;61765;45.794;24.150;2022-08-21T09:47:35;15.02;;;6.03;;
21517;SDS011;61765;45.794;24.150;2022-08-21T09:51:48;12.77;;;6.30;;
21517;SDS011;61765;45.794;24.150;2022-08-21T09:55:58;14.88;;;7.75;;
21517;SDS011;61765;45.794;24.150;2022-08-21T10:00:24;10.73;;;6.72;;
21517;SDS011;61765;45.794;24.150;2022-08-21T10:04:33;9.85;;;7.07;;
21517;SDS011;61765;45.794;24.150;2022-08-21T10:08:40;16.17;;;7.97;;
21517;SDS011;61765;45.794;24.150;2022-08-21T10:12:53;12.43;;;7.03;;
21517;SDS011;61765;45.794;24.150;2022-08-21T10:17:12;14.45;;;7.57;;
21517;SDS011;61765;45.794;24.150;2022-08-21T10:21:23;12.65;;;7.60;;
21517;SDS011;61765;45.794;24.150;2022-08-21T10:25:35;10.90;;;7.23;;
21517;SDS011;61765;45.794;24.150;2022-08-21T10:30:08;11.85;;;8.00;;
21517;SDS011;61765;45.794;24.150;2022-08-21T10:34:29;14.52;;;9.20;;
21517;SDS011;61765;45.794;24.150;2022-08-21T10:38:52;12.00;;;8.23;;
21517;SDS011;61765;45.794;24.150;2022-08-21T10:43:30;15.23;;;8.95;;
21517;SDS011;61765;45.794;24.150;2022-08-21T10:47:47;15.63;;;9.05;;
21517;SDS011;61765;45.794;24.150;2022-08-21T10:52:02;12.77;;;7.97;;
21517;SDS011;61765;45.794;24.150;2022-08-21T10:56:25;16.48;;;8.80;;
21517;SDS011;61765;45.794;24.150;2022-08-21T11:00:36;14.82;;;8.20;;
21517;SDS011;61765;45.794;24.150;2022-08-21T11:04:52;13.05;;;8.80;;
21517;SDS011;61765;45.794;24.150;2022-08-21T11:09:03;11.90;;;7.57;;
21517;SDS011;61765;45.794;24.150;2022-08-21T11:13:16;11.48;;;7.53;;
21517;SDS011;61765;45.794;24.150;2022-08-21T11:17:37;13.23;;;8.45;;
21517;SDS011;61765;45.794;24.150;2022-08-21T11:21:52;13.30;;;8.43;;
21517;SDS011;61765;45.794;24.150;2022-08-21T11:26:04;10.93;;;6.85;;
21517;SDS011;61765;45.794;24.150;2022-08-21T11:30:13;7.97;;;4.90;;
21517;SDS011;61765;45.794;24.150;2022-08-21T11:34:22;11.10;;;5.25;;
21517;SDS011;61765;45.794;24.150;2022-08-21T11:38:40;8.85;;;4.88;;
21517;SDS011;61765;45.794;24.150;2022-08-21T11:42:47;9.98;;;3.47;;
21517;SDS011;61765;45.794;24.150;2022-08-21T11:47:02;5.68;;;2.97;;
21517;SDS011;61765;45.794;24.150;2022-08-21T11:51:17;6.22;;;2.90;;
21517;SDS011;61765;45.794;24.150;2022-08-21T11:55:28;8.95;;;3.42;;
21517;SDS011;61765;45.794;24.150;2022-08-21T11:59:43;8.32;;;3.75;;
21517;SDS011;61765;45.794;24.150;2022-08-21T12:03:54;9.40;;;4.13;;
21517;SDS011;61765;45.794;24.150;2022-08-21T12:08:03;5.70;;;3.60;;
21517;SDS011;61765;45.794;24.150;2022-08-21T12:12:24;8.95;;;3.85;;
21517;SDS011;61765;45.794;24.150;2022-08-21T12:16:32;4.45;;;2.75;;
21517;SDS011;61765;45.794;24.150;2022-08-21T12:20:43;4.00;;;2.60;;
21517;SDS011;61765;45.794;24.150;2022-08-21T12:24:51;5.75;;;2.47;;
21517;SDS011;61765;45.794;24.150;2022-08-21T12:29:14;5.55;;;2.50;;
21517;SDS011;61765;45.794;24.150;2022-08-21T12:33:26;5.78;;;3.10;;
21517;SDS011;61765;45.794;24.150;2022-08-21T12:37:37;6.07;;;2.60;;
21517;SDS011;61765;45.794;24.150;2022-08-21T12:41:50;4.55;;;2.97;;
21517;SDS011;61765;45.794;24.150;2022-08-21T12:46:05;6.15;;;3.40;;
21517;SDS011;61765;45.794;24.150;2022-08-21T12:50:13;8.57;;;3.90;;
21517;SDS011;61765;45.794;24.150;2022-08-21T12:54:23;10.77;;;5.27;;
21517;SDS011;61765;45.794;24.150;2022-08-21T12:58:31;11.50;;;5.55;;
21517;SDS011;61765;45.794;24.150;2022-08-21T13:02:45;8.40;;;4.45;;
21517;SDS011;61765;45.794;24.150;2022-08-21T13:06:54;8.90;;;4.75;;
21517;SDS011;61765;45.794;24.150;2022-08-21T13:11:04;5.90;;;3.97;;
21517;SDS011;61765;45.794;24.150;2022-08-21T13:15:21;5.80;;;3.53;;
21517;SDS011;61765;45.794;24.150;2022-08-21T13:19:36;6.25;;;3.13;;
21517;SDS011;61765;45.794;24.150;2022-08-21T13:23:42;7.22;;;3.70;;
21517;SDS011;61765;45.794;24.150;2022-08-21T13:27:57;6.22;;;3.88;;
21517;SDS011;61765;45.794;24.150;2022-08-21T13:32:05;5.05;;;3.78;;
21517;SDS011;61765;45.794;24.150;2022-08-21T13:36:14;6.32;;;3.65;;
21517;SDS011;61765;45.794;24.150;2022-08-21T13:40:24;7.00;;;4.43;;
21517;SDS011;61765;45.794;24.150;2022-08-21T13:44:34;7.57;;;4.68;;
21517;SDS011;61765;45.794;24.150;2022-08-21T13:48:41;8.77;;;4.50;;
21517;SDS011;61765;45.794;24.150;2022-08-21T13:52:57;5.13;;;3.95;;
21517;SDS011;61765;45.794;24.150;2022-08-21T13:57:14;6.88;;;4.18;;
21517;SDS011;61765;45.794;24.150;2022-08-21T14:01:22;6.32;;;3.78;;
21517;SDS011;61765;45.794;24.150;2022-08-21T14:05:36;3.55;;;3.25;;
21517;SDS011;61765;45.794;24.150;2022-08-21T14:09:50;4.47;;;3.17;;
21517;SDS011;61765;45.794;24.150;2022-08-21T14:13:57;5.60;;;4.18;;
21517;SDS011;61765;45.794;24.150;2022-08-21T14:18:09;5.70;;;4.30;;
21517;SDS011;61765;45.794;24.150;2022-08-21T14:26:49;5.40;;;3.47;;
21517;SDS011;61765;45.794;24.150;2022-08-21T14:30:56;6.07;;;3.40;;
21517;SDS011;61765;45.794;24.150;2022-08-21T14:35:05;6.00;;;4.30;;
21517;SDS011;61765;45.794;24.150;2022-08-21T14:39:12;7.15;;;4.45;;
21517;SDS011;61765;45.794;24.150;2022-08-21T14:43:20;6.38;;;3.88;;
21517;SDS011;61765;45.794;24.150;2022-08-21T14:47:26;5.47;;;4.57;;
21517;SDS011;61765;45.794;24.150;2022-08-21T14:51:32;4.45;;;3.67;;
21517;SDS011;61765;45.794;24.150;2022-08-21T15:00:15;8.23;;;5.57;;
21517;SDS011;61765;45.794;24.150;2022-08-21T15:04:27;6.38;;;4.20;;
21517;SDS011;61765;45.794;24.150;2022-08-21T15:08:33;8.60;;;5.22;;
21517;SDS011;61765;45.794;24.150;2022-08-21T15:12:38;6.57;;;5.10;;
21517;SDS011;61765;45.794;24.150;2022-08-21T15:16:47;7.13;;;4.93;;
21517;SDS011;61765;45.794;24.150;2022-08-21T15:20:53;7.47;;;5.55;;
21517;SDS011;61765;45.794;24.150;2022-08-21T15:24:59;6.60;;;4.82;;
21517;SDS011;61765;45.794;24.150;2022-08-21T15:29:05;7.97;;;5.57;;
21517;SDS011;61765;45.794;24.150;2022-08-21T15:33:15;7.75;;;5.45;;
21517;SDS011;61765;45.794;24.150;2022-08-21T15:37:21;8.27;;;5.10;;
21517;SDS011;61765;45.794;24.150;2022-08-21T15:41:27;8.75;;;5.32;;
21517;SDS011;61765;45.794;24.150;2022-08-21T15:45:34;10.02;;;5.00;;
21517;SDS011;61765;45.794;24.150;2022-08-21T15:49:42;8.70;;;4.68;;
21517;SDS011;61765;45.794;24.150;2022-08-21T15:53:48;10.85;;;5.82;;
21517;SDS011;61765;45.794;24.150;2022-08-21T15:57:53;9.73;;;5.50;;
21517;SDS011;61765;45.794;24.150;2022-08-21T16:02:03;8.55;;;4.95;;
21517;SDS011;61765;45.794;24.150;2022-08-21T16:06:11;7.28;;;5.28;;
21517;SDS011;61765;45.794;24.150;2022-08-21T16:10:18;6.32;;;4.93;;
21517;SDS011;61765;45.794;24.150;2022-08-21T16:14:31;8.25;;;4.97;;
21517;SDS011;61765;45.794;24.150;2022-08-21T16:18:38;11.02;;;6.47;;
21517;SDS011;61765;45.794;24.150;2022-08-21T16:22:47;10.23;;;7.45;;
21517;SDS011;61765;45.794;24.150;2022-08-21T16:26:52;10.52;;;7.10;;
21517;SDS011;61765;45.794;24.150;2022-08-21T16:30:59;8.85;;;6.47;;
21517;SDS011;61765;45.794;24.150;2022-08-21T16:35:05;10.50;;;6.05;;
21517;SDS011;61765;45.794;24.150;2022-08-21T16:39:16;7.88;;;4.70;;
21517;SDS011;61765;45.794;24.150;2022-08-21T16:43:22;6.55;;;4.97;;
21517;SDS011;61765;45.794;24.150;2022-08-21T16:47:30;7.40;;;5.45;;
21517;SDS011;61765;45.794;24.150;2022-08-21T16:51:36;7.22;;;4.38;;
21517;SDS011;61765;45.794;24.150;2022-08-21T16:55:44;8.65;;;5.10;;
21517;SDS011;61765;45.794;24.150;2022-08-21T16:59:49;9.23;;;5.68;;
21517;SDS011;61765;45.794;24.150;2022-08-21T17:03:55;11.88;;;6.15;;
21517;SDS011;61765;45.794;24.150;2022-08-21T17:08:00;7.53;;;5.47;;
21517;SDS011;61765;45.794;24.150;2022-08-21T17:12:09;8.05;;;5.35;;
21517;SDS011;61765;45.794;24.150;2022-08-21T17:16:15;8.15;;;5.45;;
21517;SDS011;61765;45.794;24.150;2022-08-21T17:20:21;7.82;;;5.32;;
21517;SDS011;61765;45.794;24.150;2022-08-21T17:24:27;8.13;;;5.53;;
21517;SDS011;61765;45.794;24.150;2022-08-21T17:28:36;9.50;;;5.30;;
21517;SDS011;61765;45.794;24.150;2022-08-21T17:32:41;7.85;;;5.22;;
21517;SDS011;61765;45.794;24.150;2022-08-21T17:36:48;8.57;;;5.30;;
21517;SDS011;61765;45.794;24.150;2022-08-21T17:40:54;9.80;;;5.70;;
21517;SDS011;61765;45.794;24.150;2022-08-21T17:45:02;6.53;;;5.20;;
21517;SDS011;61765;45.794;24.150;2022-08-21T17:49:09;14.55;;;5.47;;
21517;SDS011;61765;45.794;24.150;2022-08-21T17:53:15;7.95;;;5.22;;
21517;SDS011;61765;45.794;24.150;2022-08-21T17:57:21;8.63;;;5.53;;
21517;SDS011;61765;45.794;24.150;2022-08-21T18:01:32;9.43;;;5.35;;
21517;SDS011;61765;45.794;24.150;2022-08-21T18:05:39;9.57;;;5.33;;
21517;SDS011;61765;45.794;24.150;2022-08-21T18:09:45;9.50;;;5.25;;
21517;SDS011;61765;45.794;24.150;2022-08-21T18:13:51;8.40;;;5.97;;
21517;SDS011;61765;45.794;24.150;2022-08-21T18:18:10;11.23;;;6.03;;
21517;SDS011;61765;45.794;24.150;2022-08-21T18:22:16;13.63;;;5.50;;
21517;SDS011;61765;45.794;24.150;2022-08-21T18:26:23;6.40;;;5.43;;
21517;SDS011;61765;45.794;24.150;2022-08-21T18:30:31;9.20;;;5.93;;
21517;SDS011;61765;45.794;24.150;2022-08-21T18:34:43;7.75;;;5.72;;
21517;SDS011;61765;45.794;24.150;2022-08-21T18:38:48;8.70;;;6.32;;
21517;SDS011;61765;45.794;24.150;2022-08-21T18:42:54;7.00;;;5.00;;
21517;SDS011;61765;45.794;24.150;2022-08-21T18:47:01;10.88;;;5.80;;
21517;SDS011;61765;45.794;24.150;2022-08-21T18:51:11;10.85;;;5.05;;
21517;SDS011;61765;45.794;24.150;2022-08-21T18:55:17;7.93;;;6.13;;
21517;SDS011;61765;45.794;24.150;2022-08-21T18:59:26;12.02;;;7.10;;
21517;SDS011;61765;45.794;24.150;2022-08-21T19:03:33;13.20;;;6.35;;
21517;SDS011;61765;45.794;24.150;2022-08-21T19:07:41;9.35;;;6.65;;
21517;SDS011;61765;45.794;24.150;2022-08-21T19:11:46;12.55;;;5.93;;
21517;SDS011;61765;45.794;24.150;2022-08-21T19:15:52;12.10;;;6.32;;
21517;SDS011;61765;45.794;24.150;2022-08-21T19:20:02;9.80;;;6.10;;
21517;SDS011;61765;45.794;24.150;2022-08-21T19:24:33;13.70;;;7.43;;
21517;SDS011;61765;45.794;24.150;2022-08-21T19:28:39;10.25;;;6.82;;
21517;SDS011;61765;45.794;24.150;2022-08-21T19:32:47;14.45;;;7.85;;
21517;SDS011;61765;45.794;24.150;2022-08-21T19:36:53;11.05;;;7.22;;
21517;SDS011;61765;45.794;24.150;2022-08-21T19:41:03;8.85;;;5.95;;
21517;SDS011;61765;45.794;24.150;2022-08-21T19:45:10;11.73;;;8.90;;
21517;SDS011;61765;45.794;24.150;2022-08-21T19:49:18;14.50;;;10.00;;
21517;SDS011;61765;45.794;24.150;2022-08-21T19:53:25;15.30;;;11.05;;
21517;SDS011;61765;45.794;24.150;2022-08-21T19:57:34;13.85;;;10.82;;
21517;SDS011;61765;45.794;24.150;2022-08-21T20:01:40;16.20;;;11.20;;
21517;SDS011;61765;45.794;24.150;2022-08-21T20:05:45;13.27;;;10.60;;
21517;SDS011;61765;45.794;24.150;2022-08-21T20:09:54;14.90;;;10.38;;
21517;SDS011;61765;45.794;24.150;2022-08-21T20:14:03;14.13;;;10.63;;
21517;SDS011;61765;45.794;24.150;2022-08-21T20:18:10;12.90;;;9.32;;
21517;SDS011;61765;45.794;24.150;2022-08-21T20:22:16;12.82;;;9.45;;
21517;SDS011;61765;45.794;24.150;2022-08-21T20:26:24;11.25;;;9.05;;
21517;SDS011;61765;45.794;24.150;2022-08-21T20:30:36;13.07;;;9.43;;
21517;SDS011;61765;45.794;24.150;2022-08-21T20:34:48;14.90;;;9.65;;
21517;SDS011;61765;45.794;24.150;2022-08-21T20:38:55;15.30;;;9.35;;
21517;SDS011;61765;45.794;24.150;2022-08-21T20:43:00;16.00;;;9.52;;
21517;SDS011;61765;45.794;24.150;2022-08-21T20:47:09;14.50;;;9.85;;
21517;SDS011;61765;45.794;24.150;2022-08-21T20:51:18;14.30;;;9.95;;
21517;SDS011;61765;45.794;24.150;2022-08-21T20:55:28;15.88;;;10.27;;
21517;SDS011;61765;45.794;24.150;2022-08-21T20:59:38;14.02;;;10.13;;
21517;SDS011;61765;45.794;24.150;2022-08-21T21:03:54;14.40;;;10.15;;
21517;SDS011;61765;45.794;24.150;2022-08-21T21:08:11;16.42;;;10.63;;
21517;SDS011;61765;45.794;24.150;2022-08-21T21:12:24;17.30;;;10.68;;
21517;SDS011;61765;45.794;24.150;2022-08-21T21:16:35;14.68;;;10.57;;
21517;SDS011;61765;45.794;24.150;2022-08-21T21:21:17;15.90;;;10.15;;
21517;SDS011;61765;45.794;24.150;2022-08-21T21:25:36;18.67;;;10.35;;
21517;SDS011;61765;45.794;24.150;2022-08-21T21:29:55;13.03;;;10.20;;
21517;SDS011;61765;45.794;24.150;2022-08-21T21:34:06;13.50;;;10.15;;
21517;SDS011;61765;45.794;24.150;2022-08-21T21:38:25;14.15;;;9.80;;
21517;SDS011;61765;45.794;24.150;2022-08-21T21:42:53;12.82;;;10.05;;
21517;SDS011;61765;45.794;24.150;2022-08-21T21:47:09;16.70;;;10.02;;
21517;SDS011;61765;45.794;24.150;2022-08-21T21:51:27;14.45;;;10.40;;
21517;SDS011;61765;45.794;24.150;2022-08-21T21:55:59;12.95;;;9.45;;
21517;SDS011;61765;45.794;24.150;2022-08-21T22:00:18;15.85;;;8.93;;
21517;SDS011;61765;45.794;24.150;2022-08-21T22:04:29;13.10;;;8.68;;
21517;SDS011;61765;45.794;24.150;2022-08-21T22:08:52;11.98;;;8.68;;
21517;SDS011;61765;45.794;24.150;2022-08-21T22:13:14;12.63;;;7.55;;
21517;SDS011;61765;45.794;24.150;2022-08-21T22:17:43;11.85;;;7.70;;
21517;SDS011;61765;45.794;24.150;2022-08-21T22:21:54;10.80;;;7.20;;
21517;SDS011;61765;45.794;24.150;2022-08-21T22:26:06;9.90;;;6.57;;
21517;SDS011;61765;45.794;24.150;2022-08-21T22:35:03;10.63;;;7.65;;
21517;SDS011;61765;45.794;24.150;2022-08-21T22:39:14;10.23;;;6.95;;
21517;SDS011;61765;45.794;24.150;2022-08-21T22:43:28;12.27;;;6.80;;
21517;SDS011;61765;45.794;24.150;2022-08-21T22:47:37;11.38;;;6.63;;
21517;SDS011;61765;45.794;24.150;2022-08-21T22:51:46;9.18;;;6.93;;
21517;SDS011;61765;45.794;24.150;2022-08-21T22:55:54;9.32;;;6.53;;
21517;SDS011;61765;45.794;24.150;2022-08-21T23:00:06;8.10;;;5.70;;
21517;SDS011;61765;45.794;24.150;2022-08-21T23:04:20;10.23;;;5.78;;
21517;SDS011;61765;45.794;24.150;2022-08-21T23:08:30;9.93;;;6.55;;
21517;SDS011;61765;45.794;24.150;2022-08-21T23:12:38;10.13;;;6.13;;
21517;SDS011;61765;45.794;24.150;2022-08-21T23:21:03;11.75;;;6.00;;
21517;SDS011;61765;45.794;24.150;2022-08-21T23:25:24;10.65;;;7.13;;
21517;SDS011;61765;45.794;24.150;2022-08-21T23:29:56;14.43;;;6.88;;
21517;SDS011;61765;45.794;24.150;2022-08-21T23:34:11;10.93;;;6.55;;
21517;SDS011;61765;45.794;24.150;2022-08-21T23:38:30;10.50;;;6.90;;
21517;SDS011;61765;45.794;24.150;2022-08-21T23:42:52;10.70;;;7.00;;
21517;SDS011;61765;45.794;24.150;2022-08-21T23:47:09;10.57;;;8.43;;
21517;SDS011;61765;45.794;24.150;2022-08-21T23:51:26;15.35;;;8.60;;
21517;SDS011;61765;45.794;24.150;2022-08-21T23:55:43;15.25;;;9.20;;
